createdAt,value
2019-02-12T00:00:32.074Z,78.97
2019-02-12T00:03:00.392Z,79.70
2019-02-12T00:05:28.664Z,79.83
2019-02-12T00:07:56.929Z,79.84
2019-02-12T00:10:25.246Z,79.50
2019-02-12T00:12:53.596Z,79.18
2019-02-12T00:15:23.516Z,79.51
2019-02-12T00:17:51.850Z,79.23
2019-02-12T00:20:20.105Z,79.14
2019-02-12T00:22:48.382Z,78.93
2019-02-12T00:25:16.690Z,78.99
2019-02-12T00:27:44.963Z,78.94
2019-02-12T00:30:14.363Z,78.62
2019-02-12T00:32:42.747Z,78.68
2019-02-12T00:35:11.012Z,78.49
2019-02-12T00:37:39.294Z,78.69
2019-02-12T00:40:09.336Z,78.88
2019-02-12T00:42:37.615Z,79.38
2019-02-12T00:45:08.521Z,79.38
2019-02-12T00:47:36.828Z,79.22
2019-02-12T00:50:07.946Z,79.33
2019-02-12T00:52:36.676Z,79.18
2019-02-12T00:55:07.342Z,78.95
2019-02-12T00:57:35.621Z,78.65
2019-02-12T01:00:09.412Z,78.17
2019-02-12T01:02:37.721Z,78.54
2019-02-12T01:05:06.003Z,78.59
2019-02-12T01:07:34.278Z,78.59
2019-02-12T01:10:02.592Z,78.66
2019-02-12T01:12:30.865Z,78.65
2019-02-12T01:15:00.192Z,78.73
2019-02-12T01:17:28.536Z,78.56
2019-02-12T01:19:56.761Z,78.68
2019-02-12T01:22:25.097Z,79.06
2019-02-12T01:24:53.427Z,78.52
2019-02-12T01:27:21.695Z,78.53
2019-02-12T01:29:50.045Z,78.38
2019-02-12T01:32:21.625Z,78.27
2019-02-12T01:34:49.883Z,78.42
2019-02-12T01:37:18.159Z,79.00
2019-02-12T01:39:46.469Z,79.00
2019-02-12T01:42:14.803Z,77.48
2019-02-12T01:44:43.104Z,78.07
2019-02-12T01:47:11.413Z,78.06
2019-02-12T01:49:39.774Z,78.57
2019-02-12T01:52:08.054Z,78.46
2019-02-12T01:54:41.308Z,78.89
2019-02-12T01:57:09.587Z,78.23
2019-02-12T01:59:37.863Z,78.23
2019-02-12T02:02:06.170Z,78.25
2019-02-12T02:04:34.435Z,78.25
2019-02-12T02:07:02.714Z,78.59
2019-02-12T02:09:31.008Z,78.92
2019-02-12T02:11:59.282Z,78.95
2019-02-12T02:14:27.545Z,78.43
2019-02-12T02:16:56.674Z,78.85
2019-02-12T02:19:24.952Z,79.52
2019-02-12T02:21:53.227Z,79.45
2019-02-12T02:24:21.550Z,79.45
2019-02-12T02:26:49.814Z,79.13
2019-02-12T02:29:18.095Z,78.92
2019-02-12T02:31:46.394Z,78.83
2019-02-12T02:34:14.674Z,78.73
2019-02-12T02:36:42.942Z,79.28
2019-02-12T02:39:11.260Z,79.54
2019-02-12T02:41:39.524Z,79.04
2019-02-12T02:44:07.799Z,79.19
2019-02-12T02:46:36.126Z,79.20
2019-02-12T02:49:04.448Z,78.85
2019-02-12T02:51:34.359Z,78.41
2019-02-12T02:54:02.676Z,78.74
2019-02-12T02:56:30.928Z,78.78
2019-02-12T02:58:59.199Z,78.71
2019-02-12T03:01:27.498Z,78.76
2019-02-12T03:03:55.762Z,78.33
2019-02-12T03:06:24.025Z,77.86
2019-02-12T03:08:52.323Z,78.03
2019-02-12T03:11:20.582Z,77.33
2019-02-12T03:13:48.851Z,77.33
2019-02-12T03:16:17.157Z,77.09
2019-02-12T03:18:45.448Z,76.15
2019-02-12T03:21:13.733Z,76.15
2019-02-12T03:23:42.037Z,75.18
2019-02-12T03:26:10.293Z,73.50
2019-02-12T03:28:38.574Z,74.09
2019-02-12T03:31:06.870Z,74.09
2019-02-12T03:33:35.138Z,72.45
2019-02-12T03:36:03.415Z,72.54
2019-02-12T03:38:31.713Z,72.54
2019-02-12T03:40:59.994Z,72.51
2019-02-12T03:43:28.265Z,72.21
2019-02-12T03:45:56.565Z,71.72
2019-02-12T03:48:24.921Z,71.52
2019-02-12T03:50:53.184Z,71.95
2019-02-12T03:53:22.497Z,71.31
2019-02-12T03:55:50.779Z,71.31
2019-02-12T03:58:19.043Z,71.43
2019-02-12T04:00:47.339Z,70.60
2019-02-12T04:03:15.608Z,70.60
2019-02-12T04:05:43.905Z,71.33
2019-02-12T04:08:12.203Z,70.81
2019-02-12T04:10:40.478Z,70.46
2019-02-12T04:13:08.746Z,70.25
2019-02-12T04:15:37.143Z,70.25
2019-02-12T04:18:05.438Z,69.73
2019-02-12T04:20:34.705Z,69.73
2019-02-12T04:23:03.011Z,69.48
2019-02-12T04:25:31.276Z,69.48
2019-02-12T04:27:59.544Z,70.02
2019-02-12T04:30:27.936Z,70.02
2019-02-12T04:32:56.185Z,70.12
2019-02-12T04:35:24.433Z,69.85
2019-02-12T04:37:52.743Z,69.45
2019-02-12T04:40:21.005Z,68.33
2019-02-12T04:42:49.269Z,69.19
2019-02-12T04:45:17.571Z,69.19
2019-02-12T04:47:45.838Z,68.10
2019-02-12T04:50:15.236Z,67.61
2019-02-12T04:52:43.525Z,67.97
2019-02-12T04:55:12.254Z,68.22
2019-02-12T04:57:40.516Z,67.60
2019-02-12T05:00:11.940Z,67.10
2019-02-12T05:02:40.277Z,67.10
2019-02-12T05:05:10.315Z,66.91
2019-02-12T05:07:38.587Z,67.35
2019-02-12T05:10:21.962Z,67.15
2019-02-12T05:12:50.271Z,67.15
2019-02-12T05:15:18.537Z,66.87
2019-02-12T05:17:46.802Z,66.87
2019-02-12T05:20:15.412Z,67.16
2019-02-12T05:22:44.030Z,67.20
2019-02-12T05:25:12.470Z,67.20
2019-02-12T05:27:40.882Z,67.27
2019-02-12T05:30:13.683Z,67.25
2019-02-12T05:32:41.943Z,67.53
2019-02-12T05:35:10.242Z,67.91
2019-02-12T05:37:38.520Z,68.13
2019-02-12T05:40:09.358Z,67.95
2019-02-12T05:42:37.645Z,67.70
2019-02-12T05:45:11.206Z,67.96
2019-02-12T05:47:39.537Z,67.16
2019-02-12T05:50:16.761Z,67.37
2019-02-12T05:52:54.028Z,67.37
2019-02-12T05:55:15.040Z,67.46
2019-02-12T05:57:43.427Z,67.46
2019-02-12T06:00:20.857Z,67.34
2019-02-12T06:02:49.166Z,67.68
2019-02-12T06:05:25.875Z,67.17
2019-02-12T06:07:54.184Z,67.17
2019-02-12T06:10:22.669Z,67.54
2019-02-12T06:12:50.937Z,66.89
2019-02-12T06:15:19.251Z,68.02
2019-02-12T06:17:47.519Z,68.02
2019-02-12T06:20:15.789Z,67.38
2019-02-12T06:22:44.125Z,67.42
2019-02-12T06:25:12.526Z,67.40
2019-02-12T06:27:40.752Z,67.40
2019-02-12T06:30:10.515Z,67.16
2019-02-12T06:32:38.794Z,67.62
2019-02-12T06:35:09.692Z,67.62
2019-02-12T06:37:41.398Z,67.22
2019-02-12T06:40:11.124Z,67.22
2019-02-12T06:42:39.408Z,66.50
2019-02-12T06:45:10.355Z,66.50
2019-02-12T06:47:38.623Z,66.41
2019-02-12T06:50:09.938Z,66.44
2019-02-12T06:52:38.234Z,66.41
2019-02-12T06:55:08.350Z,66.41
2019-02-12T06:57:36.949Z,66.18
2019-02-12T07:00:11.146Z,65.93
2019-02-12T07:03:16.880Z,66.11
2019-02-12T07:05:51.422Z,66.11
2019-02-12T07:08:39.372Z,65.67
2019-02-12T07:11:16.647Z,65.57
2019-02-12T07:13:59.945Z,65.41
2019-02-12T07:16:49.210Z,65.41
2019-02-12T07:19:20.732Z,65.32
2019-02-12T07:22:04.039Z,64.38
2019-02-12T07:24:44.961Z,64.19
2019-02-12T07:27:22.651Z,64.55
2019-02-12T07:29:54.202Z,63.87
2019-02-12T07:32:28.244Z,64.23
2019-02-12T07:35:22.855Z,63.61
2019-02-12T07:37:57.174Z,63.61
2019-02-12T07:40:29.302Z,62.62
2019-02-12T07:43:06.584Z,62.62
2019-02-12T07:45:38.120Z,62.62
2019-02-12T07:48:24.465Z,62.85
2019-02-12T07:51:24.730Z,63.00
2019-02-12T07:54:08.236Z,62.83
2019-02-12T07:56:48.753Z,62.81
2019-02-12T07:59:44.475Z,62.51
2019-02-12T08:02:33.944Z,62.11
2019-02-12T08:05:20.728Z,62.25
2019-02-12T08:08:14.941Z,61.83
2019-02-12T08:11:21.406Z,61.83
2019-02-12T08:13:52.965Z,61.15
2019-02-12T08:16:27.205Z,61.04
2019-02-12T08:19:01.813Z,61.34
2019-02-12T08:21:39.066Z,61.37
2019-02-12T08:24:28.805Z,60.42
2019-02-12T08:27:00.381Z,60.42
2019-02-12T08:29:41.369Z,60.25
2019-02-12T08:32:26.217Z,60.01
2019-02-12T08:35:14.112Z,59.69
2019-02-12T08:37:54.461Z,59.67
2019-02-12T08:40:28.782Z,59.94
2019-02-12T08:43:12.024Z,60.09
2019-02-12T08:46:03.293Z,60.09
2019-02-12T08:48:43.814Z,59.72
2019-02-12T08:51:24.162Z,59.77
2019-02-12T08:54:01.338Z,59.77
2019-02-12T08:56:44.670Z,59.47
2019-02-12T08:59:22.280Z,60.05
2019-02-12T09:02:05.722Z,59.02
2019-02-12T09:04:54.671Z,59.30
2019-02-12T09:07:34.829Z,59.35
2019-02-12T09:10:20.477Z,59.37
2019-02-12T09:13:00.694Z,59.88
2019-02-12T09:15:50.300Z,60.12
2019-02-12T09:18:27.368Z,60.79
2019-02-12T09:21:28.814Z,60.30
2019-02-12T09:24:22.883Z,60.30
2019-02-12T09:27:09.419Z,59.70
2019-02-12T09:29:55.620Z,60.00
2019-02-12T09:32:47.630Z,59.87
2019-02-12T09:35:24.952Z,59.56
2019-02-12T09:37:59.285Z,59.99
2019-02-12T09:40:39.512Z,60.34
2019-02-12T09:43:39.676Z,60.00
2019-02-12T09:46:13.950Z,60.37
2019-02-12T09:49:02.409Z,60.33
2019-02-12T09:51:56.833Z,59.95
2019-02-12T09:54:30.056Z,59.97
2019-02-12T09:57:21.342Z,60.45
2019-02-12T10:00:16.188Z,60.81
2019-02-12T10:03:10.440Z,60.43
2019-02-12T10:05:44.810Z,60.74
2019-02-12T10:08:39.450Z,60.07
2019-02-12T10:11:16.773Z,60.07
2019-02-12T10:13:48.548Z,60.01
2019-02-12T10:16:31.822Z,60.27
2019-02-12T10:19:08.022Z,59.61
2019-02-12T10:21:51.391Z,59.19
2019-02-12T10:24:36.999Z,58.45
2019-02-12T10:27:13.950Z,58.46
2019-02-12T10:30:00.429Z,57.73
2019-02-12T10:32:28.026Z,57.64
2019-02-12T10:34:57.128Z,56.97
2019-02-12T10:37:25.579Z,56.12
2019-02-12T10:39:53.877Z,56.09
2019-02-12T10:42:23.785Z,56.66
2019-02-12T10:44:52.055Z,56.24
2019-02-12T10:47:25.270Z,56.45
2019-02-12T10:49:55.170Z,56.42
2019-02-12T10:52:25.081Z,56.60
2019-02-12T10:54:56.635Z,56.00
2019-02-12T10:57:24.916Z,55.64
2019-02-12T10:59:54.823Z,56.02
2019-02-12T11:02:24.198Z,56.31
2019-02-12T11:04:54.124Z,56.59
2019-02-12T11:07:25.010Z,56.35
2019-02-12T11:09:54.194Z,55.92
2019-02-12T11:12:22.466Z,55.20
2019-02-12T11:14:50.738Z,55.56
2019-02-12T11:17:24.682Z,54.93
2019-02-12T11:19:56.225Z,54.50
2019-02-12T11:22:26.139Z,54.64
2019-02-12T11:24:56.109Z,54.06
2019-02-12T11:27:24.591Z,54.67
2019-02-12T11:29:52.880Z,54.77
2019-02-12T11:32:21.188Z,53.95
2019-02-12T11:34:53.748Z,53.85
2019-02-12T11:37:22.026Z,53.85
2019-02-12T11:39:51.999Z,52.88
2019-02-12T11:42:25.012Z,52.86
2019-02-12T11:44:54.316Z,52.82
2019-02-12T11:47:24.346Z,52.82
2019-02-12T11:49:53.740Z,52.41
2019-02-12T11:52:22.012Z,52.11
2019-02-12T11:54:51.955Z,51.60
2019-02-12T11:57:23.040Z,51.76
2019-02-12T11:59:52.384Z,51.48
2019-02-12T12:02:22.570Z,51.48
2019-02-12T12:04:52.470Z,51.79
2019-02-12T12:07:20.736Z,51.83
2019-02-12T12:09:49.038Z,51.19
2019-02-12T12:12:19.806Z,51.17
2019-02-12T12:14:48.502Z,51.15
2019-02-12T12:17:18.708Z,51.86
2019-02-12T12:19:47.675Z,51.91
2019-02-12T12:22:21.056Z,52.75
2019-02-12T12:24:51.541Z,52.07
2019-02-12T12:27:19.366Z,52.19
2019-02-12T12:29:47.640Z,51.27
2019-02-12T12:32:15.948Z,51.05
2019-02-12T12:34:45.866Z,50.75
2019-02-12T12:37:15.534Z,50.27
2019-02-12T12:39:48.779Z,50.33
2019-02-12T12:42:17.073Z,50.71
2019-02-12T12:44:48.602Z,49.80
2019-02-12T12:47:17.581Z,50.27
2019-02-12T12:49:47.555Z,50.12
2019-02-12T12:52:19.147Z,49.37
2019-02-12T12:54:49.038Z,50.24
2019-02-12T12:57:18.999Z,49.80
2019-02-12T12:59:49.486Z,49.71
2019-02-12T13:02:18.832Z,49.78
2019-02-12T13:04:48.734Z,49.77
2019-02-12T13:07:17.025Z,49.77
2019-02-12T13:09:46.987Z,49.67
2019-02-12T13:12:17.025Z,49.45
2019-02-12T13:14:49.619Z,50.04
2019-02-12T13:17:17.932Z,49.51
2019-02-12T13:19:47.844Z,49.59
2019-02-12T13:22:17.742Z,49.43
2019-02-12T13:24:52.459Z,49.24
2019-02-12T13:27:20.813Z,49.85
2019-02-12T13:29:50.712Z,50.08
2019-02-12T13:32:20.891Z,50.32
2019-02-12T13:34:50.790Z,50.94
2019-02-12T13:37:19.135Z,51.86
2019-02-12T13:39:47.427Z,51.86
2019-02-12T13:42:16.626Z,51.85
2019-02-12T13:44:44.881Z,51.58
2019-02-12T13:47:13.200Z,51.75
2019-02-12T13:49:41.481Z,51.77
2019-02-12T13:52:09.925Z,50.95
2019-02-12T13:54:38.234Z,51.21
2019-02-12T13:57:06.602Z,50.97
2019-02-12T13:59:34.882Z,51.33
2019-02-12T14:02:03.462Z,51.33
2019-02-12T14:04:33.509Z,51.47
2019-02-12T14:07:01.852Z,51.72
2019-02-12T14:09:33.415Z,51.87
2019-02-12T14:12:06.574Z,52.13
2019-02-12T14:14:35.790Z,51.30
2019-02-12T14:17:04.166Z,51.06
2019-02-12T14:19:34.068Z,51.54
2019-02-12T14:22:02.358Z,51.39
2019-02-12T14:24:36.364Z,50.76
2019-02-12T14:27:04.653Z,50.81
2019-02-12T14:29:34.558Z,50.79
2019-02-12T14:32:02.923Z,50.60
2019-02-12T14:34:31.192Z,50.39
2019-02-12T14:36:59.462Z,50.46
2019-02-12T14:39:31.718Z,50.34
2019-02-12T14:41:59.989Z,50.22
2019-02-12T14:44:28.265Z,49.77
2019-02-12T14:46:56.585Z,50.28
2019-02-12T14:49:24.924Z,49.82
2019-02-12T14:51:53.198Z,49.44
2019-02-12T14:54:25.364Z,49.25
2019-02-12T14:56:55.273Z,49.42
2019-02-12T14:59:27.519Z,49.28
2019-02-12T15:01:59.416Z,49.51
2019-02-12T15:04:30.592Z,50.13
2019-02-12T15:07:00.542Z,50.25
2019-02-12T15:09:30.445Z,50.26
2019-02-12T15:12:00.355Z,49.99
2019-02-12T15:14:28.925Z,50.10
2019-02-12T15:16:59.695Z,49.56
2019-02-12T15:19:27.981Z,49.80
2019-02-12T15:21:58.311Z,49.78
2019-02-12T15:24:30.343Z,49.81
2019-02-12T15:27:00.259Z,49.21
2019-02-12T15:29:28.592Z,49.56
2019-02-12T15:31:58.528Z,49.37
2019-02-12T15:34:28.429Z,49.67
2019-02-12T15:37:01.071Z,49.64
2019-02-12T15:39:30.962Z,49.97
2019-02-12T15:42:01.729Z,50.37
2019-02-12T15:44:30.701Z,50.89
2019-02-12T15:47:03.590Z,51.13
2019-02-12T15:49:35.180Z,52.04
2019-02-12T15:52:06.721Z,52.04
2019-02-12T15:54:38.243Z,52.47
2019-02-12T15:57:08.190Z,53.60
2019-02-12T15:59:38.104Z,53.60
2019-02-12T16:02:06.400Z,53.33
2019-02-12T16:04:39.021Z,53.85
2019-02-12T16:07:09.000Z,53.73
2019-02-12T16:09:37.268Z,54.18
2019-02-12T16:12:11.032Z,53.88
2019-02-12T16:14:40.114Z,54.14
2019-02-12T16:17:12.372Z,54.47
2019-02-12T16:19:41.527Z,54.54
2019-02-12T16:22:11.426Z,54.77
2019-02-12T16:24:42.394Z,55.01
2019-02-12T16:27:13.985Z,55.08
2019-02-12T16:29:44.687Z,54.56
2019-02-12T16:32:12.958Z,54.13
2019-02-12T16:34:41.937Z,53.81
2019-02-12T16:37:10.220Z,53.62
2019-02-12T16:39:41.838Z,53.87
2019-02-12T16:42:11.774Z,53.86
2019-02-12T16:44:39.861Z,54.23
2019-02-12T16:47:07.989Z,54.56
2019-02-12T16:49:37.047Z,55.10
2019-02-12T16:52:08.601Z,55.07
2019-02-12T16:54:40.695Z,55.39
2019-02-12T16:57:10.668Z,55.73
2019-02-12T16:59:38.930Z,55.59
2019-02-12T17:02:07.227Z,56.07
2019-02-12T17:04:35.646Z,56.34
2019-02-12T17:07:04.015Z,56.74
2019-02-12T17:09:32.284Z,56.73
2019-02-12T17:12:00.853Z,56.83
2019-02-12T17:14:29.233Z,57.24
2019-02-12T17:17:00.194Z,57.09
2019-02-12T17:19:28.504Z,57.21
2019-02-12T17:21:59.320Z,57.59
2019-02-12T17:24:27.589Z,57.77
2019-02-12T17:26:58.258Z,57.61
2019-02-12T17:29:26.532Z,57.86
2019-02-12T17:31:54.809Z,57.62
2019-02-12T17:34:23.115Z,57.86
2019-02-12T17:36:51.378Z,57.90
2019-02-12T17:39:19.661Z,57.79
2019-02-12T17:41:50.117Z,57.91
2019-02-12T17:44:20.015Z,58.08
2019-02-12T17:46:49.938Z,58.24
2019-02-12T17:49:19.011Z,58.28
2019-02-12T17:51:48.993Z,58.45
2019-02-12T17:54:17.370Z,58.79
2019-02-12T17:56:46.554Z,58.79
2019-02-12T17:59:16.537Z,59.04
2019-02-12T18:01:46.706Z,58.93
2019-02-12T18:04:15.048Z,59.13
2019-02-12T18:06:44.094Z,59.34
2019-02-12T18:09:13.253Z,59.46
2019-02-12T18:11:44.814Z,59.44
2019-02-12T18:14:13.079Z,59.68
2019-02-12T18:16:41.355Z,60.02
2019-02-12T18:19:09.652Z,60.77
2019-02-12T18:21:38.086Z,64.21
2019-02-12T18:24:07.447Z,65.35
2019-02-12T18:26:35.949Z,64.74
2019-02-12T18:29:04.229Z,64.74
2019-02-12T18:31:32.495Z,64.46
2019-02-12T18:34:00.822Z,64.71
2019-02-12T18:36:29.107Z,68.38
2019-02-12T18:38:57.523Z,69.63
2019-02-12T18:41:25.832Z,69.93
2019-02-12T18:43:54.283Z,70.13
2019-02-12T18:46:22.567Z,70.13
2019-02-12T18:48:50.890Z,70.85
2019-02-12T18:51:19.177Z,71.33
2019-02-12T18:53:47.469Z,70.56
2019-02-12T18:56:16.014Z,69.55
2019-02-12T18:58:44.367Z,69.55
2019-02-12T19:01:12.763Z,69.32
2019-02-12T19:03:41.278Z,68.64
2019-02-12T19:06:09.558Z,68.30
2019-02-12T19:08:37.837Z,68.30
2019-02-12T19:11:06.320Z,67.05
2019-02-12T19:13:34.778Z,67.01
2019-02-12T19:16:03.057Z,66.75
2019-02-12T19:18:31.363Z,66.79
2019-02-12T19:20:59.774Z,66.79
2019-02-12T19:23:28.055Z,65.66
2019-02-12T19:25:56.407Z,65.66
2019-02-12T19:28:24.769Z,65.63
2019-02-12T19:30:53.035Z,65.63
2019-02-12T19:33:21.383Z,65.17
2019-02-12T19:35:49.669Z,65.29
2019-02-12T19:38:17.971Z,65.29
2019-02-12T19:40:46.293Z,65.28
2019-02-12T19:43:15.544Z,65.43
2019-02-12T19:45:44.027Z,65.44
2019-02-12T19:48:12.344Z,65.14
2019-02-12T19:50:40.638Z,64.57
2019-02-12T19:53:08.929Z,64.99
2019-02-12T19:55:37.251Z,64.94
2019-02-12T19:58:05.569Z,64.94
2019-02-12T20:00:33.805Z,64.85
2019-02-12T20:03:05.656Z,65.28
2019-02-12T20:05:34.001Z,65.28
2019-02-12T20:08:02.359Z,65.03
2019-02-12T20:10:30.789Z,65.45
2019-02-12T20:12:59.139Z,65.45
2019-02-12T20:15:27.494Z,66.14
2019-02-12T20:17:55.984Z,65.47
2019-02-12T20:20:24.444Z,65.47
2019-02-12T20:22:52.868Z,65.28
2019-02-12T20:25:21.180Z,65.28
2019-02-12T20:27:49.460Z,65.47
2019-02-12T20:30:18.891Z,65.35
2019-02-12T20:32:47.200Z,65.35
2019-02-12T20:35:20.240Z,65.73
2019-02-12T20:37:48.523Z,65.54
2019-02-12T20:40:16.973Z,65.54
2019-02-12T20:42:45.281Z,65.88
2019-02-12T20:45:16.051Z,66.24
2019-02-12T20:47:44.473Z,66.24
2019-02-12T20:50:14.590Z,66.54
2019-02-12T20:52:43.126Z,66.46
2019-02-12T20:55:12.604Z,66.52
2019-02-12T20:57:40.889Z,66.74
2019-02-12T21:00:20.890Z,66.74
2019-02-12T21:02:49.185Z,67.00
2019-02-12T21:05:17.557Z,66.68
2019-02-12T21:07:46.008Z,66.13
2019-02-12T21:10:17.192Z,65.94
2019-02-12T21:12:45.473Z,66.07
2019-02-12T21:15:19.792Z,65.87
2019-02-12T21:17:50.554Z,65.69
2019-02-12T21:20:18.910Z,65.69
2019-02-12T21:22:47.255Z,65.48
2019-02-12T21:25:15.615Z,65.48
2019-02-12T21:27:43.925Z,65.43
2019-02-12T21:30:18.129Z,65.67
2019-02-12T21:32:46.474Z,65.96
2019-02-12T21:35:14.781Z,65.76
2019-02-12T21:37:43.114Z,65.91
2019-02-12T21:40:14.023Z,65.91
2019-02-12T21:42:42.352Z,66.23
2019-02-12T21:45:12.813Z,66.39
2019-02-12T21:47:41.193Z,66.51
2019-02-12T21:50:31.368Z,66.51
2019-02-12T21:52:59.617Z,66.44
2019-02-12T21:55:27.976Z,66.84
2019-02-12T21:57:56.476Z,66.84
2019-02-12T22:00:24.761Z,66.95
2019-02-12T22:02:53.074Z,66.62
2019-02-12T22:05:21.387Z,66.40
2019-02-12T22:07:49.762Z,66.70
2019-02-12T22:10:21.043Z,66.70
2019-02-12T22:12:49.463Z,67.03
2019-02-12T22:15:17.754Z,67.04
2019-02-12T22:17:47.700Z,66.95
2019-02-12T22:20:20.602Z,66.95
2019-02-12T22:22:48.910Z,67.29
2019-02-12T22:25:17.237Z,67.29
2019-02-12T22:27:45.591Z,67.49
2019-02-12T22:30:21.836Z,67.46
2019-02-12T22:32:51.794Z,67.42
2019-02-12T22:35:20.183Z,67.31
2019-02-12T22:37:48.463Z,67.53
2019-02-12T22:40:17.846Z,67.61
2019-02-12T22:42:46.190Z,67.65
2019-02-12T22:45:16.307Z,67.65
2019-02-12T22:47:44.641Z,67.50
2019-02-12T22:50:13.567Z,67.70
2019-02-12T22:52:41.923Z,67.88
2019-02-12T22:55:10.872Z,67.88
2019-02-12T22:57:39.141Z,67.90
2019-02-12T23:00:26.972Z,68.01
2019-02-12T23:02:55.395Z,68.09
2019-02-12T23:05:23.669Z,68.09
2019-02-12T23:07:51.993Z,68.28
2019-02-12T23:10:20.327Z,68.39
2019-02-12T23:12:52.548Z,68.43
2019-02-12T23:15:22.383Z,68.68
2019-02-12T23:17:52.282Z,68.60
2019-02-12T23:20:26.610Z,68.60
2019-02-12T23:22:56.797Z,68.80
2019-02-12T23:25:26.705Z,68.80
2019-02-12T23:27:57.653Z,68.68
2019-02-12T23:30:25.210Z,68.64
2019-02-12T23:32:55.128Z,69.45
2019-02-12T23:35:25.144Z,69.45
2019-02-12T23:37:53.447Z,68.82
2019-02-12T23:40:21.812Z,69.03
2019-02-12T23:42:50.130Z,69.03
2019-02-12T23:45:18.434Z,69.10
2019-02-12T23:47:46.730Z,69.19
2019-02-12T23:50:15.010Z,69.29
2019-02-12T23:52:43.336Z,69.20
2019-02-12T23:55:11.628Z,69.31
2019-02-12T23:57:39.986Z,69.74
